createdAt,value
2023-04-16T00:01:25.432Z,2.95
2023-04-16T00:03:52.162Z,2.78
2023-04-16T00:06:18.753Z,2.60
2023-04-16T00:08:45.193Z,3.10
2023-04-16T00:11:11.882Z,2.47
2023-04-16T00:13:38.313Z,2.60
2023-04-16T00:16:04.986Z,2.50
2023-04-16T00:18:32.082Z,2.70
2023-04-16T00:20:59.522Z,2.60
2023-04-16T00:23:25.996Z,2.58
2023-04-16T00:25:53.793Z,2.80
2023-04-16T00:28:20.341Z,2.70
2023-04-16T00:30:46.778Z,2.63
2023-04-16T00:33:13.183Z,2.35
2023-04-16T00:35:39.821Z,2.78
2023-04-16T00:38:06.216Z,2.90
2023-04-16T00:40:32.623Z,2.40
2023-04-16T00:42:59.045Z,3.07
2023-04-16T00:45:25.487Z,2.72
2023-04-16T00:47:51.958Z,3.10
2023-04-16T00:50:18.682Z,3.00
2023-04-16T00:52:47.511Z,3.20
2023-04-16T00:55:15.169Z,2.93
2023-04-16T00:57:41.627Z,3.25
2023-04-16T01:00:08.694Z,3.40
2023-04-16T01:02:35.605Z,3.85
2023-04-16T01:05:03.152Z,3.35
2023-04-16T01:07:29.675Z,3.80
2023-04-16T01:09:56.445Z,3.80
2023-04-16T01:12:23.221Z,3.50
2023-04-16T01:14:49.988Z,3.90
2023-04-16T01:17:16.383Z,3.42
2023-04-16T01:19:42.982Z,3.40
2023-04-16T01:22:09.389Z,3.65
2023-04-16T01:24:36.460Z,3.40
2023-04-16T01:27:02.936Z,3.53
2023-04-16T01:29:29.443Z,3.20
2023-04-16T01:31:55.878Z,3.50
2023-04-16T01:34:22.274Z,3.70
2023-04-16T01:36:48.701Z,3.90
2023-04-16T01:39:16.442Z,3.80
2023-04-16T01:41:43.575Z,3.90
2023-04-16T01:44:10.002Z,3.47
2023-04-16T01:46:38.032Z,3.78
2023-04-16T01:49:05.569Z,3.58
2023-04-16T01:51:32.312Z,3.90
2023-04-16T01:53:58.945Z,3.83
2023-04-16T01:56:25.767Z,3.67
2023-04-16T01:58:52.983Z,3.60
2023-04-16T02:01:19.852Z,3.78
2023-04-16T02:03:47.135Z,3.85
2023-04-16T02:06:13.803Z,3.40
2023-04-16T02:08:40.929Z,3.70
2023-04-16T02:11:07.624Z,3.58
2023-04-16T02:13:34.031Z,3.60
2023-04-16T02:16:00.606Z,3.55
2023-04-16T02:18:27.230Z,3.58
2023-04-16T02:20:53.695Z,3.67
2023-04-16T02:23:20.274Z,3.60
2023-04-16T02:25:47.661Z,3.80
2023-04-16T02:28:16.728Z,3.80
2023-04-16T02:30:43.894Z,3.83
2023-04-16T02:33:11.951Z,3.97
2023-04-16T02:35:39.733Z,3.80
2023-04-16T02:38:06.618Z,4.00
2023-04-16T02:40:33.321Z,3.88
2023-04-16T02:42:59.810Z,4.30
2023-04-16T02:45:26.198Z,3.80
2023-04-16T02:47:52.820Z,4.30
2023-04-16T02:50:19.278Z,4.20
2023-04-16T02:52:45.824Z,3.97
2023-04-16T02:55:12.213Z,4.18
2023-04-16T02:57:38.791Z,4.60
2023-04-16T03:00:05.842Z,4.70
2023-04-16T03:02:32.381Z,4.57
2023-04-16T03:04:58.818Z,4.88
2023-04-16T03:07:25.887Z,4.93
2023-04-16T03:09:52.538Z,5.33
2023-04-16T03:12:18.941Z,4.97
2023-04-16T03:14:45.362Z,5.40
2023-04-16T03:17:12.100Z,5.30
2023-04-16T03:19:38.512Z,5.15
2023-04-16T03:22:05.004Z,5.30
2023-04-16T03:24:32.254Z,5.25
2023-04-16T03:26:58.952Z,5.15
2023-04-16T03:29:26.753Z,5.20
2023-04-16T03:31:53.445Z,5.90
2023-04-16T03:34:19.965Z,5.43
2023-04-16T03:36:46.412Z,5.72
2023-04-16T03:39:12.938Z,5.88
2023-04-16T03:41:39.371Z,6.10
2023-04-16T03:44:05.843Z,6.63
2023-04-16T03:46:32.343Z,6.60
2023-04-16T03:48:58.783Z,6.72
2023-04-16T03:51:26.294Z,7.13
2023-04-16T03:53:52.839Z,7.53
2023-04-16T03:56:19.258Z,6.90
2023-04-16T03:58:45.645Z,6.73
2023-04-16T04:01:12.075Z,5.18
2023-04-16T04:03:38.594Z,7.20
2023-04-16T04:06:09.015Z,6.57
2023-04-16T04:08:35.658Z,6.72
2023-04-16T04:11:02.075Z,6.40
2023-04-16T04:13:28.693Z,6.25
2023-04-16T04:15:55.286Z,7.38
2023-04-16T04:18:21.729Z,7.80
2023-04-16T04:20:48.205Z,7.15
2023-04-16T04:23:14.641Z,8.07
2023-04-16T04:25:41.085Z,6.10
2023-04-16T04:28:07.509Z,9.20
2023-04-16T04:30:35.730Z,8.60
2023-04-16T04:33:02.297Z,8.10
2023-04-16T04:35:28.875Z,8.37
2023-04-16T04:37:55.673Z,8.52
2023-04-16T04:40:22.214Z,9.30
2023-04-16T04:42:48.628Z,8.70
2023-04-16T04:45:15.314Z,9.48
2023-04-16T04:47:41.820Z,9.50
2023-04-16T04:50:08.649Z,8.80
2023-04-16T04:52:35.046Z,9.95
2023-04-16T04:55:01.669Z,10.80
2023-04-16T04:57:28.104Z,11.23
2023-04-16T04:59:54.520Z,9.67
2023-04-16T05:02:21.097Z,11.27
2023-04-16T05:04:47.659Z,10.75
2023-04-16T05:07:14.145Z,11.07
2023-04-16T05:09:40.611Z,9.70
2023-04-16T05:12:07.136Z,10.70
2023-04-16T05:14:33.654Z,9.45
2023-04-16T05:17:00.143Z,10.18
2023-04-16T05:19:26.654Z,8.82
2023-04-16T05:21:53.052Z,9.27
2023-04-16T05:24:20.014Z,11.20
2023-04-16T05:26:46.454Z,8.23
2023-04-16T05:29:12.855Z,9.27
2023-04-16T05:31:39.448Z,10.00
2023-04-16T05:34:05.842Z,10.50
2023-04-16T05:36:32.315Z,9.00
2023-04-16T05:38:58.697Z,9.45
2023-04-16T05:41:25.517Z,9.88
2023-04-16T05:43:51.950Z,9.93
2023-04-16T05:46:18.402Z,9.52
2023-04-16T05:48:44.870Z,8.90
2023-04-16T05:51:11.307Z,8.93
2023-04-16T05:53:37.756Z,9.77
2023-04-16T05:56:04.385Z,6.05
2023-04-16T05:58:30.761Z,6.72
2023-04-16T06:00:57.319Z,6.17
2023-04-16T06:03:23.733Z,5.90
2023-04-16T06:05:50.330Z,5.90
2023-04-16T06:08:16.853Z,6.72
2023-04-16T06:10:43.300Z,6.55
2023-04-16T06:13:09.719Z,5.73
2023-04-16T06:15:36.119Z,6.88
2023-04-16T06:18:02.564Z,5.68
2023-04-16T06:20:29.087Z,4.50
2023-04-16T06:25:22.555Z,7.60
2023-04-16T06:27:48.993Z,7.13
2023-04-16T06:30:16.077Z,6.57
2023-04-16T06:32:43.712Z,7.85
2023-04-16T06:35:10.199Z,6.78
2023-04-16T06:37:36.587Z,8.30
2023-04-16T06:40:03.214Z,8.10
2023-04-16T06:42:29.754Z,6.88
2023-04-16T06:44:56.244Z,7.35
2023-04-16T06:47:22.703Z,7.57
2023-04-16T06:49:49.143Z,7.83
2023-04-16T06:52:15.626Z,7.75
2023-04-16T06:54:42.113Z,7.30
2023-04-16T06:57:08.588Z,7.53
2023-04-16T06:59:34.986Z,7.90
2023-04-16T07:02:01.989Z,7.80
2023-04-16T07:04:28.797Z,6.25
2023-04-16T07:06:55.225Z,8.38
2023-04-16T07:09:21.644Z,8.60
2023-04-16T07:11:48.384Z,8.52
2023-04-16T07:14:14.839Z,8.73
2023-04-16T07:16:41.261Z,8.98
2023-04-16T07:19:07.983Z,8.55
2023-04-16T07:21:34.705Z,8.38
2023-04-16T07:24:01.394Z,7.50
2023-04-16T07:26:27.774Z,8.20
2023-04-16T07:28:54.182Z,8.27
2023-04-16T07:31:20.747Z,8.43
2023-04-16T07:33:47.258Z,7.20
2023-04-16T07:36:14.055Z,7.88
2023-04-16T07:38:40.614Z,7.70
2023-04-16T07:41:07.076Z,7.75
2023-04-16T07:43:33.491Z,7.65
2023-04-16T07:45:59.941Z,7.63
2023-04-16T07:48:26.477Z,7.53
2023-04-16T07:50:52.911Z,7.70
2023-04-16T07:53:19.329Z,7.60
2023-04-16T07:55:46.098Z,7.85
2023-04-16T07:58:12.531Z,7.72
2023-04-16T08:00:39.597Z,7.35
2023-04-16T08:03:06.365Z,7.40
2023-04-16T08:05:32.914Z,6.05
2023-04-16T08:07:59.306Z,6.68
2023-04-16T08:10:25.993Z,6.65
2023-04-16T08:12:54.929Z,6.05
2023-04-16T08:15:21.443Z,6.20
2023-04-16T08:17:47.983Z,5.45
2023-04-16T08:20:17.594Z,5.70
2023-04-16T08:22:46.417Z,6.40
2023-04-16T08:25:12.863Z,8.10
2023-04-16T08:27:39.262Z,6.90
2023-04-16T08:30:06.329Z,6.18
2023-04-16T08:32:32.810Z,6.13
2023-04-16T08:34:59.858Z,5.60
2023-04-16T08:37:26.672Z,5.60
2023-04-16T08:39:53.129Z,5.80
2023-04-16T08:42:30.422Z,5.03
2023-04-16T08:45:04.633Z,5.07
2023-04-16T08:47:34.513Z,5.55
2023-04-16T08:50:03.308Z,5.57
2023-04-16T08:52:31.327Z,4.53
2023-04-16T08:55:00.883Z,5.57
2023-04-16T08:57:36.441Z,5.28
2023-04-16T09:00:03.998Z,5.07
2023-04-16T09:02:31.493Z,5.10
2023-04-16T09:05:00.252Z,4.90
2023-04-16T09:07:29.093Z,4.60
2023-04-16T09:09:57.862Z,5.15
2023-04-16T09:12:24.569Z,4.95
2023-04-16T09:14:51.575Z,5.18
2023-04-16T09:17:21.108Z,4.50
2023-04-16T09:19:47.716Z,4.03
2023-04-16T09:22:14.318Z,4.65
2023-04-16T09:24:41.889Z,4.35
2023-04-16T09:27:08.731Z,4.60
2023-04-16T09:29:37.096Z,4.77
2023-04-16T09:32:05.362Z,4.38
2023-04-16T09:34:36.328Z,4.70
2023-04-16T09:37:19.101Z,4.28
2023-04-16T09:39:54.225Z,4.72
2023-04-16T09:42:28.035Z,4.33
2023-04-16T09:44:57.870Z,4.53
2023-04-16T09:47:38.286Z,4.97
2023-04-16T09:50:05.430Z,4.70
2023-04-16T09:52:31.831Z,5.78
2023-04-16T09:54:59.996Z,7.27
2023-04-16T09:57:27.179Z,5.57
2023-04-16T10:00:09.250Z,4.75
2023-04-16T10:02:39.281Z,4.47
2023-04-16T10:05:06.414Z,4.90
2023-04-16T10:07:37.278Z,4.97
2023-04-16T10:10:04.535Z,5.60
2023-04-16T10:12:32.845Z,5.13
2023-04-16T10:14:59.481Z,4.78
2023-04-16T10:17:26.585Z,5.13
2023-04-16T10:19:54.634Z,5.07
2023-04-16T10:22:21.379Z,5.40
2023-04-16T10:24:49.881Z,4.43
2023-04-16T10:27:17.224Z,5.10
2023-04-16T10:29:44.597Z,4.70
2023-04-16T10:32:11.836Z,4.90
2023-04-16T10:34:39.080Z,5.18
2023-04-16T10:37:05.541Z,5.05
2023-04-16T10:39:37.411Z,5.20
2023-04-16T10:42:13.552Z,5.18
2023-04-16T10:44:43.478Z,5.23
2023-04-16T10:47:13.207Z,6.00
2023-04-16T10:49:40.528Z,6.22
2023-04-16T10:52:12.101Z,6.53
2023-04-16T10:54:39.550Z,7.00
2023-04-16T10:57:09.488Z,7.33
2023-04-16T10:59:38.450Z,7.28
2023-04-16T11:02:16.629Z,7.40
2023-04-16T11:04:45.776Z,7.78
2023-04-16T11:07:15.260Z,8.27
2023-04-16T11:09:47.621Z,8.27
2023-04-16T11:12:16.284Z,7.55
2023-04-16T11:14:43.367Z,7.25
2023-04-16T11:17:10.206Z,7.80
2023-04-16T11:19:38.103Z,7.57
2023-04-16T11:22:05.401Z,7.50
2023-04-16T11:24:32.736Z,8.57
2023-04-16T11:26:59.260Z,7.43
2023-04-16T11:29:25.906Z,7.90
2023-04-16T11:31:53.712Z,7.53
2023-04-16T11:34:21.046Z,8.37
2023-04-16T11:36:49.452Z,8.27
2023-04-16T11:39:16.722Z,8.15
2023-04-16T11:41:48.231Z,8.65
2023-04-16T11:44:25.186Z,8.07
2023-04-16T11:46:52.917Z,8.37
2023-04-16T11:49:30.139Z,8.45
2023-04-16T11:51:57.414Z,7.90
2023-04-16T11:54:25.055Z,7.97
2023-04-16T11:56:53.580Z,8.20
2023-04-16T11:59:22.923Z,8.47
2023-04-16T12:01:55.608Z,7.65
2023-04-16T12:04:25.141Z,8.35
2023-04-16T12:07:07.003Z,7.63
2023-04-16T12:09:37.158Z,8.30
2023-04-16T12:12:06.570Z,8.90
2023-04-16T12:14:33.132Z,8.02
2023-04-16T12:17:23.510Z,7.68
2023-04-16T12:19:56.855Z,8.45
2023-04-16T12:22:45.282Z,7.63
2023-04-16T12:25:14.074Z,7.47
2023-04-16T12:27:53.407Z,7.68
2023-04-16T12:30:23.428Z,7.55
2023-04-16T12:32:53.538Z,7.68
2023-04-16T12:35:33.934Z,7.95
2023-04-16T12:38:01.043Z,7.47
2023-04-16T12:40:27.748Z,7.80
2023-04-16T12:42:54.873Z,8.32
2023-04-16T12:45:21.949Z,7.93
2023-04-16T12:47:48.471Z,7.85
2023-04-16T12:50:14.950Z,8.67
2023-04-16T12:52:41.557Z,8.60
2023-04-16T12:55:08.353Z,7.63
2023-04-16T12:57:34.827Z,8.52
2023-04-16T13:00:01.360Z,7.55
2023-04-16T13:02:28.168Z,7.50
2023-04-16T13:04:54.886Z,7.95
2023-04-16T13:07:21.524Z,8.65
2023-04-16T13:09:47.968Z,7.65
2023-04-16T13:12:14.460Z,9.05
2023-04-16T13:14:43.271Z,8.83
2023-04-16T13:17:11.099Z,8.73
2023-04-16T13:19:37.515Z,9.35
2023-04-16T13:22:04.029Z,9.05
2023-04-16T13:24:30.538Z,9.10
2023-04-16T13:26:56.964Z,9.90
2023-04-16T13:29:23.364Z,9.75
2023-04-16T13:31:50.006Z,8.68
2023-04-16T13:34:16.484Z,10.10
2023-04-16T13:36:43.079Z,9.38
2023-04-16T13:39:12.238Z,9.43
2023-04-16T13:41:38.966Z,9.10
2023-04-16T13:44:05.912Z,8.88
2023-04-16T13:46:32.561Z,8.80
2023-04-16T13:48:59.121Z,8.93
2023-04-16T13:51:27.060Z,9.30
2023-04-16T13:53:54.709Z,9.80
2023-04-16T13:56:21.262Z,9.38
2023-04-16T13:58:47.709Z,9.90
2023-04-16T14:01:14.222Z,8.98
2023-04-16T14:03:42.058Z,9.27
2023-04-16T14:06:08.574Z,9.73
2023-04-16T14:08:35.095Z,9.10
2023-04-16T14:11:02.136Z,8.32
2023-04-16T14:13:28.565Z,8.80
2023-04-16T14:15:55.714Z,8.80
2023-04-16T14:18:22.144Z,9.70
2023-04-16T14:20:48.623Z,8.75
2023-04-16T14:23:15.079Z,9.55
2023-04-16T14:25:41.657Z,9.02
2023-04-16T14:28:09.235Z,8.70
2023-04-16T14:30:35.774Z,9.30
2023-04-16T14:33:04.350Z,8.70
2023-04-16T14:35:30.910Z,9.40
2023-04-16T14:37:58.301Z,9.65
2023-04-16T14:40:24.762Z,9.90
2023-04-16T14:42:51.237Z,8.75
2023-04-16T14:45:17.634Z,8.63
2023-04-16T14:47:47.732Z,8.68
2023-04-16T14:50:15.701Z,8.80
2023-04-16T14:52:42.267Z,8.97
2023-04-16T14:55:08.828Z,8.45
2023-04-16T14:57:35.402Z,8.63
2023-04-16T15:00:02.206Z,8.85
2023-04-16T15:02:28.968Z,9.00
2023-04-16T15:04:55.573Z,8.17
2023-04-16T15:07:22.158Z,8.15
2023-04-16T15:09:48.576Z,8.32
2023-04-16T15:12:16.187Z,8.82
2023-04-16T15:14:43.376Z,8.50
2023-04-16T15:17:10.043Z,8.40
2023-04-16T15:19:36.719Z,9.30
2023-04-16T15:22:03.155Z,8.82
2023-04-16T15:24:29.552Z,10.10
2023-04-16T15:26:56.344Z,8.77
2023-04-16T15:29:22.742Z,9.70
2023-04-16T15:31:49.234Z,9.68
2023-04-16T15:34:15.792Z,8.70
2023-04-16T15:36:42.255Z,8.68
2023-04-16T15:39:09.557Z,9.13
2023-04-16T15:41:46.980Z,9.30
2023-04-16T15:44:23.893Z,8.80
2023-04-16T15:46:50.395Z,9.38
2023-04-16T15:49:16.888Z,9.63
2023-04-16T15:51:43.308Z,9.57
2023-04-16T15:54:09.777Z,9.83
2023-04-16T15:56:36.211Z,10.20
2023-04-16T15:59:03.836Z,8.90
2023-04-16T16:01:31.109Z,9.85
2023-04-16T16:03:57.785Z,10.95
2023-04-16T16:06:24.610Z,10.63
2023-04-16T16:08:51.206Z,9.38
2023-04-16T16:11:17.625Z,9.80
2023-04-16T16:13:44.014Z,10.68
2023-04-16T16:16:10.640Z,10.32
2023-04-16T16:18:37.286Z,11.00
2023-04-16T16:21:03.887Z,10.70
2023-04-16T16:23:30.432Z,10.60
2023-04-16T16:25:56.930Z,9.52
2023-04-16T16:28:25.006Z,10.77
2023-04-16T16:30:53.773Z,10.43
2023-04-16T16:33:20.780Z,10.35
2023-04-16T16:35:47.262Z,10.43
2023-04-16T16:38:13.704Z,10.55
2023-04-16T16:40:40.188Z,10.48
2023-04-16T16:43:06.635Z,10.83
2023-04-16T16:45:33.103Z,10.80
2023-04-16T16:47:59.580Z,10.85
2023-04-16T16:50:26.127Z,10.60
2023-04-16T16:52:52.663Z,10.23
2023-04-16T16:55:20.199Z,10.47
2023-04-16T16:57:46.616Z,11.30
2023-04-16T17:00:14.258Z,11.20
2023-04-16T17:02:41.275Z,11.38
2023-04-16T17:05:08.288Z,11.85
2023-04-16T17:07:34.751Z,11.43
2023-04-16T17:10:03.735Z,11.18
2023-04-16T17:12:31.906Z,11.40
2023-04-16T17:14:58.418Z,11.07
2023-04-16T17:17:26.556Z,11.52
2023-04-16T17:19:53.455Z,11.10
2023-04-16T17:22:19.890Z,11.68
2023-04-16T17:24:46.688Z,12.00
2023-04-16T17:27:13.135Z,11.95
2023-04-16T17:29:39.581Z,9.95
2023-04-16T17:32:06.090Z,12.03
2023-04-16T17:34:32.554Z,11.95
2023-04-16T17:36:58.942Z,12.48
2023-04-16T17:39:25.398Z,12.40
2023-04-16T17:41:54.763Z,10.75
2023-04-16T17:44:22.973Z,11.27
2023-04-16T17:46:49.389Z,12.02
2023-04-16T17:49:16.006Z,11.95
2023-04-16T17:51:44.416Z,12.10
2023-04-16T17:54:11.108Z,11.95
2023-04-16T17:56:37.759Z,12.23
2023-04-16T17:59:04.949Z,12.18
2023-04-16T18:01:31.587Z,12.18
2023-04-16T18:03:58.331Z,10.57
2023-04-16T18:06:25.033Z,12.13
2023-04-16T18:08:51.509Z,12.43
2023-04-16T18:11:17.923Z,12.32
2023-04-16T18:13:44.482Z,12.95
2023-04-16T18:16:16.503Z,12.35
2023-04-16T18:18:43.837Z,12.23
2023-04-16T18:21:10.649Z,11.73
2023-04-16T18:23:37.387Z,12.27
2023-04-16T18:26:04.122Z,12.48
2023-04-16T18:28:30.588Z,12.15
2023-04-16T18:30:59.010Z,12.45
2023-04-16T18:33:52.443Z,12.70
2023-04-16T18:36:14.555Z,12.20
2023-04-16T18:38:53.017Z,12.05
2023-04-16T18:41:26.289Z,12.98
2023-04-16T18:43:52.774Z,12.13
2023-04-16T18:46:19.213Z,12.50
2023-04-16T18:48:45.806Z,12.57
2023-04-16T18:51:14.226Z,13.00
2023-04-16T18:53:44.267Z,13.02
2023-04-16T18:56:11.566Z,12.77
2023-04-16T18:58:38.127Z,12.27
2023-04-16T19:01:05.288Z,13.30
2023-04-16T19:03:32.205Z,12.57
2023-04-16T19:05:58.823Z,13.98
2023-04-16T19:08:26.257Z,12.90
2023-04-16T19:10:52.829Z,11.70
2023-04-16T19:13:19.250Z,12.90
2023-04-16T19:15:46.174Z,14.07
2023-04-16T19:18:12.670Z,14.02
2023-04-16T19:20:39.503Z,13.95
2023-04-16T19:23:08.867Z,14.03
2023-04-16T19:25:36.509Z,13.80
2023-04-16T19:28:03.896Z,15.05
2023-04-16T19:30:30.998Z,14.90
2023-04-16T19:32:57.612Z,15.18
2023-04-16T19:35:24.184Z,14.77
2023-04-16T19:37:50.943Z,14.95
2023-04-16T19:40:17.461Z,14.73
2023-04-16T19:42:45.362Z,15.10
2023-04-16T19:45:11.855Z,15.15
2023-04-16T19:47:38.422Z,13.93
2023-04-16T19:50:05.349Z,14.48
2023-04-16T19:52:37.299Z,14.35
2023-04-16T19:55:04.289Z,14.50
2023-04-16T19:57:30.730Z,14.82
2023-04-16T19:59:57.274Z,14.77
2023-04-16T20:02:23.788Z,15.48
2023-04-16T20:04:50.727Z,15.57
2023-04-16T20:07:17.526Z,14.82
2023-04-16T20:09:43.960Z,15.77
2023-04-16T20:12:10.456Z,14.80
2023-04-16T20:14:36.862Z,15.38
2023-04-16T20:17:03.589Z,15.02
2023-04-16T20:19:33.590Z,14.55
2023-04-16T20:21:59.987Z,14.75
2023-04-16T20:24:26.589Z,14.80
2023-04-16T20:26:52.997Z,15.43
2023-04-16T20:29:19.408Z,15.38
2023-04-16T20:31:46.175Z,14.98
2023-04-16T20:34:12.834Z,15.38
2023-04-16T20:36:39.229Z,15.90
2023-04-16T20:39:07.889Z,15.43
2023-04-16T20:41:34.391Z,15.30
2023-04-16T20:44:05.343Z,15.48
2023-04-16T20:46:34.236Z,15.45
2023-04-16T20:49:04.510Z,14.57
2023-04-16T20:51:31.541Z,15.45
2023-04-16T20:53:57.991Z,13.13
2023-04-16T20:56:24.426Z,14.60
2023-04-16T20:58:53.085Z,15.05
2023-04-16T21:01:20.565Z,15.67
2023-04-16T21:03:47.124Z,15.57
2023-04-16T21:06:17.914Z,14.70
2023-04-16T21:08:44.512Z,15.48
2023-04-16T21:11:10.945Z,13.52
2023-04-16T21:13:37.343Z,15.87
2023-04-16T21:16:04.946Z,15.68
2023-04-16T21:18:31.440Z,15.20
2023-04-16T21:20:58.960Z,15.55
2023-04-16T21:23:25.459Z,15.25
2023-04-16T21:25:51.897Z,14.37
2023-04-16T21:28:18.314Z,13.48
2023-04-16T21:30:44.787Z,15.38
2023-04-16T21:33:12.812Z,15.10
2023-04-16T21:35:39.272Z,14.27
2023-04-16T21:38:05.683Z,14.77
2023-04-16T21:40:32.142Z,14.73
2023-04-16T21:42:58.586Z,14.60
2023-04-16T21:45:24.974Z,14.93
2023-04-16T21:47:51.457Z,15.00
2023-04-16T21:50:18.063Z,15.07
2023-04-16T21:52:46.764Z,15.48
2023-04-16T21:55:14.387Z,14.05
2023-04-16T21:57:40.870Z,14.60
2023-04-16T22:00:12.026Z,15.20
2023-04-16T22:02:38.515Z,14.57
2023-04-16T22:05:05.452Z,14.82
2023-04-16T22:07:31.882Z,14.35
2023-04-16T22:09:58.279Z,15.07
2023-04-16T22:12:24.751Z,15.30
2023-04-16T22:17:22.255Z,12.77
2023-04-16T22:19:49.314Z,13.88
2023-04-16T22:22:15.796Z,13.48
2023-04-16T22:24:42.374Z,14.20
2023-04-16T22:27:08.805Z,15.47
2023-04-16T22:29:35.350Z,15.57
2023-04-16T22:32:02.006Z,16.38
2023-04-16T22:34:28.452Z,15.75
2023-04-16T22:36:54.889Z,15.90
2023-04-16T22:39:21.489Z,14.70
2023-04-16T22:41:48.022Z,15.65
2023-04-16T22:44:14.834Z,15.45
2023-04-16T22:46:41.410Z,14.27
2023-04-16T22:49:07.807Z,16.42
2023-04-16T22:51:34.206Z,16.13
2023-04-16T22:54:00.830Z,16.30
2023-04-16T22:56:28.924Z,16.42
2023-04-16T22:58:55.520Z,15.02
2023-04-16T23:01:22.139Z,16.10
2023-04-16T23:03:48.846Z,16.70
2023-04-16T23:06:15.711Z,14.93
2023-04-16T23:08:42.120Z,15.18
2023-04-16T23:11:08.542Z,17.00
2023-04-16T23:13:34.939Z,15.93
2023-04-16T23:16:01.361Z,16.27
2023-04-16T23:18:27.852Z,14.98
2023-04-16T23:20:54.240Z,14.38
2023-04-16T23:23:20.800Z,15.13
2023-04-16T23:25:47.246Z,15.27
2023-04-16T23:28:13.746Z,15.23
2023-04-16T23:30:40.280Z,15.05
2023-04-16T23:33:06.847Z,15.10
2023-04-16T23:35:33.400Z,15.10
2023-04-16T23:37:59.787Z,13.85
2023-04-16T23:40:26.451Z,13.10
2023-04-16T23:42:52.844Z,14.80
2023-04-16T23:45:19.254Z,14.40
2023-04-16T23:47:45.811Z,13.82
2023-04-16T23:50:12.570Z,13.45
2023-04-16T23:52:39.029Z,14.70
2023-04-16T23:55:05.752Z,13.88
2023-04-16T23:57:32.188Z,15.13
2023-04-16T23:59:58.585Z,13.27
